KLGF/LGF METAR and TAF weather

Enter ICAO airport designator
Station Type Date Time Source
KLGF METAR 2020/01/20 18:58 UTC NOAA

KLGF 201858Z AUTO 00000KT 10SM SCT190 18/M02 A3007 RMK AO2 SLP182 T01841021 $


Station Type Date Time Source
KLGF Decoded METAR 2020/01/20 18:58 UTC NOAA

Station name not available
Jan 20, 2020 - 01:58 PM EST / 2020.01.20 1858 UTC
Wind: Calm:0
Visibility: 10 mile(s):0
Sky conditions: partly cloudy
Temperature: 65.1 F (18.4 C)
Dew Point: 28.2 F (-2.1 C)
Relative Humidity: 24%
Pressure (altimeter): 30.07 in. Hg (1018 hPa)
ob: KLGF 201858Z AUTO 00000KT 10SM SCT190 18/M02 A3007 RMK AO2 SLP182 T01841021
cycle: 19

Station Type Date Time Source
KLGF TAF UTC NOAA

Error!

Example: see airport list